Time;durP1;ratioP1;P1;durP2;ratioP2;P2;SDS_P1;SDS_P2;PMS_P1;PMS_P2;Temp;Humidity;BMP_temperature;BMP_pressure;BME280_temperature;BME280_humidity;BME280_pressure;Samples;Min_cycle;Max_cycle;Signal;HPM_P1;HPM_P2
2022/07/03 00:01:26;;;;;;;5.75;4.30;;;;;;;-141.50;100.00;63355.56;5037263;28;20077;-83
2022/07/03 00:03:53;;;;;;;7.22;4.10;;;;;;;-141.50;100.00;63355.56;5036555;28;20072;-83
2022/07/03 00:06:20;;;;;;;6.35;4.25;;;;;;;-141.50;100.00;63355.56;5006638;28;20046;-82
2022/07/03 00:08:47;;;;;;;6.35;3.47;;;;;;;-141.50;100.00;63355.56;5022695;28;20080;-81
2022/07/03 00:11:14;;;;;;;5.15;3.30;;;;;;;-141.50;100.00;63355.56;5030304;28;20111;-82
2022/07/03 00:13:41;;;;;;;7.10;3.70;;;;;;;-141.50;100.00;63355.56;5025615;28;20049;-82
2022/07/03 00:16:08;;;;;;;6.07;3.40;;;;;;;-141.50;100.00;63355.56;5018369;28;20092;-84
2022/07/03 00:18:34;;;;;;;8.23;3.92;;;;;;;-141.50;100.00;63355.56;5017311;28;20108;-81
2022/07/03 00:21:04;;;;;;;6.75;4.10;;;;;;;-141.50;100.00;63355.56;5016839;28;20041;-81
2022/07/03 00:23:44;;;;;;;9.10;3.72;;;;;;;-141.50;100.00;63355.56;5017311;28;20054;-83
2022/07/03 00:26:12;;;;;;;6.70;3.30;;;;;;;-141.50;100.00;63355.56;5022795;28;20062;-84
2022/07/03 00:28:41;;;;;;;8.20;3.40;;;;;;;-141.50;100.00;63355.56;5017974;28;20434;-82
2022/07/03 00:31:09;;;;;;;5.30;3.50;;;;;;;-141.50;100.00;63355.56;5013701;28;20086;-81
2022/07/03 00:33:36;;;;;;;7.75;3.90;;;;;;;-141.50;100.00;63355.56;5014557;28;20064;-82
2022/07/03 00:36:03;;;;;;;6.63;4.07;;;;;;;-141.50;100.00;63355.56;4996258;28;20124;-82
2022/07/03 00:38:29;;;;;;;6.38;3.50;;;;;;;-141.50;100.00;63355.56;5014205;28;20068;-80
2022/07/03 00:40:56;;;;;;;6.03;3.33;;;;;;;-141.50;100.00;63355.56;4997031;28;20573;-80
2022/07/03 00:43:25;;;;;;;7.47;3.40;;;;;;;-141.50;100.00;63355.56;5014326;28;20081;-81
2022/07/03 00:45:53;;;;;;;5.78;3.75;;;;;;;-141.50;100.00;63355.56;4997199;28;20085;-83
2022/07/03 00:48:20;;;;;;;5.45;4.28;;;;;;;-141.50;100.00;63355.56;4997010;28;20046;-83
2022/07/03 00:50:52;;;;;;;5.55;3.65;;;;;;;-141.50;100.00;63355.56;5013822;28;20519;-82
2022/07/03 00:53:28;;;;;;;8.15;3.83;;;;;;;-141.50;100.00;63355.56;4995787;28;20050;-82
2022/07/03 00:55:55;;;;;;;7.45;3.58;;;;;;;-141.50;100.00;63355.56;4996820;28;20138;-82
2022/07/03 00:58:22;;;;;;;4.60;3.22;;;;;;;-141.50;100.00;63355.56;4994989;28;20062;-82
2022/07/03 01:00:52;;;;;;;6.38;3.47;;;;;;;-141.50;100.00;63355.56;4996164;28;20129;-81
2022/07/03 01:03:22;;;;;;;6.30;3.40;;;;;;;-141.50;100.00;63355.56;5011856;28;20054;-82
2022/07/03 01:05:54;;;;;;;6.97;4.00;;;;;;;-141.50;100.00;63355.56;5012990;28;20463;-81
2022/07/03 01:08:43;;;;;;;7.57;3.90;;;;;;;-141.50;100.00;63355.56;5011977;28;20530;-81
2022/07/03 01:11:18;;;;;;;8.07;3.80;;;;;;;-141.50;100.00;63355.56;4994943;28;20449;-81
2022/07/03 01:14:24;;;;;;;12.70;3.67;;;;;;;-141.50;100.00;63355.56;4997823;28;20053;-81
2022/07/03 01:17:17;;;;;;;5.60;3.78;;;;;;;-141.50;100.00;63355.56;5021796;28;20304;-80
2022/07/03 01:19:46;;;;;;;6.70;3.83;;;;;;;-141.50;100.00;63355.56;5010917;28;20085;-81
2022/07/03 01:22:36;;;;;;;7.70;3.97;;;;;;;-141.50;100.00;63355.56;5012181;28;20436;-82
2022/07/03 01:25:11;;;;;;;7.03;4.15;;;;;;;-141.50;100.00;63355.56;4997501;28;20045;-82
2022/07/03 01:27:44;;;;;;;5.75;3.40;;;;;;;-141.50;100.00;63355.56;5021331;28;20105;-83
2022/07/03 01:30:11;;;;;;;5.25;3.60;;;;;;;-141.50;100.00;63355.56;5023854;28;20084;-83
2022/07/03 01:32:41;;;;;;;7.47;4.00;;;;;;;-141.50;100.00;63355.56;5038997;28;20088;-83
2022/07/03 01:35:12;;;;;;;5.78;3.85;;;;;;;-141.50;100.00;63355.56;5034645;28;20089;-82
2022/07/03 01:37:40;;;;;;;6.57;3.53;;;;;;;-141.50;100.00;63355.56;5038967;28;20056;-83
2022/07/03 01:40:08;;;;;;;4.45;3.90;;;;;;;-141.50;100.00;63355.56;5035958;28;20367;-82
2022/07/03 01:42:40;;;;;;;5.72;3.92;;;;;;;-141.50;100.00;63355.56;5030372;28;20068;-81
2022/07/03 01:45:09;;;;;;;6.32;3.67;;;;;;;-141.50;100.00;63355.56;5031140;28;20536;-82
2022/07/03 01:47:39;;;;;;;5.53;3.80;;;;;;;-141.50;100.00;63355.56;5030772;28;20089;-83
2022/07/03 01:50:10;;;;;;;7.57;3.72;;;;;;;-141.50;100.00;63355.56;5030231;28;20050;-82
2022/07/03 01:52:39;;;;;;;5.78;3.80;;;;;;;-141.50;100.00;63355.56;5032424;28;20100;-80
2022/07/03 01:55:15;;;;;;;8.27;3.90;;;;;;;-141.50;100.00;63355.56;5032004;28;20123;-83
2022/07/03 01:57:46;;;;;;;6.43;3.60;;;;;;;-141.50;100.00;63355.56;5031525;28;20053;-82
2022/07/03 02:00:17;;;;;;;7.28;3.63;;;;;;;-141.50;100.00;63355.56;5032481;28;20078;-81
2022/07/03 02:02:54;;;;;;;6.25;4.10;;;;;;;-141.50;100.00;63355.56;5030251;28;20041;-81
2022/07/03 02:05:44;;;;;;;5.97;3.85;;;;;;;-141.50;100.00;63355.56;5032285;28;20049;-81
2022/07/03 02:08:40;;;;;;;8.27;3.90;;;;;;;-141.50;100.00;63355.56;5030886;28;20675;-82
2022/07/03 02:11:20;;;;;;;7.75;4.60;;;;;;;-141.50;100.00;63355.56;5019025;28;20104;-81
2022/07/03 02:13:47;;;;;;;6.35;3.58;;;;;;;-141.50;100.00;63355.56;5026458;28;20084;-81
2022/07/03 02:16:20;;;;;;;5.88;3.75;;;;;;;-141.50;100.00;63355.56;5003230;28;20489;-82
2022/07/03 02:19:02;;;;;;;8.63;4.30;;;;;;;-141.50;100.00;63355.56;5012882;28;20064;-82
2022/07/03 02:21:30;;;;;;;7.43;4.22;;;;;;;-141.50;100.00;63355.56;5013209;28;20657;-82
2022/07/03 02:24:15;;;;;;;6.45;3.63;;;;;;;-141.50;100.00;63355.56;4995477;28;20113;-84
2022/07/03 02:26:42;;;;;;;6.13;3.80;;;;;;;-141.50;100.00;63355.56;5013554;28;20108;-80
2022/07/03 02:29:13;;;;;;;8.82;3.72;;;;;;;-141.50;100.00;63355.56;5012901;28;20433;-81
2022/07/03 02:31:45;;;;;;;8.10;4.05;;;;;;;-141.50;100.00;63355.56;4995849;28;20057;-82
2022/07/03 02:34:17;;;;;;;6.93;3.60;;;;;;;-141.50;100.00;63355.56;4995610;28;20137;-80
2022/07/03 02:36:49;;;;;;;4.18;3.60;;;;;;;-141.50;100.00;63355.56;5011390;28;20550;-82
2022/07/03 02:39:27;;;;;;;7.95;3.90;;;;;;;-141.50;100.00;63355.56;5010996;28;20046;-81
2022/07/03 02:41:59;;;;;;;4.90;3.60;;;;;;;-141.50;100.00;63355.56;5011405;28;20178;-82
2022/07/03 02:44:45;;;;;;;4.47;3.65;;;;;;;-141.50;100.00;63355.56;5011426;28;20546;-82
2022/07/03 02:47:27;;;;;;;6.72;3.65;;;;;;;-141.50;100.00;63355.56;5012133;28;20133;-83
2022/07/03 02:50:16;;;;;;;4.43;3.40;;;;;;;-141.50;100.00;63355.56;4996918;28;20541;-83
2022/07/03 02:52:56;;;;;;;6.07;3.80;;;;;;;-141.50;100.00;63355.56;5015892;28;20176;-83
2022/07/03 02:55:32;;;;;;;6.70;3.92;;;;;;;-141.50;100.00;63355.56;5010158;28;20140;-82
2022/07/03 02:58:11;;;;;;;6.43;3.72;;;;;;;-141.50;100.00;63355.56;5010001;28;20117;-83
2022/07/03 03:00:42;;;;;;;5.75;3.72;;;;;;;-141.50;100.00;63355.56;4993022;28;20084;-83
2022/07/03 03:03:09;;;;;;;4.95;3.75;;;;;;;-141.50;100.00;63355.56;5011121;28;20045;-83
2022/07/03 03:05:46;;;;;;;10.45;3.70;;;;;;;-141.50;100.00;63355.56;5010939;28;20045;-83
2022/07/03 03:08:19;;;;;;;9.38;3.70;;;;;;;-141.50;100.00;63355.56;4993213;28;20076;-83
2022/07/03 03:10:48;;;;;;;15.90;3.60;;;;;;;-141.50;100.00;63355.56;4993603;28;20112;-83
2022/07/03 03:13:19;;;;;;;5.05;3.70;;;;;;;-141.50;100.00;63355.56;4996655;28;20374;-82
2022/07/03 03:16:09;;;;;;;5.18;3.75;;;;;;;-141.50;100.00;63355.56;5001051;28;20049;-83
2022/07/03 03:18:38;;;;;;;6.75;3.80;;;;;;;-141.50;100.00;63355.56;5010258;28;20055;-83
2022/07/03 03:21:15;;;;;;;5.18;3.15;;;;;;;-141.50;100.00;63355.56;5009794;28;20107;-81
2022/07/03 03:23:48;;;;;;;6.03;3.97;;;;;;;-141.50;100.00;63355.56;5009756;28;20133;-82
2022/07/03 03:26:18;;;;;;;6.97;4.10;;;;;;;-141.50;100.00;63355.56;4993570;28;20050;-83
2022/07/03 03:28:45;;;;;;;5.97;4.13;;;;;;;-141.50;100.00;63355.56;4992398;28;20141;-83
2022/07/03 03:31:12;;;;;;;4.75;3.60;;;;;;;-141.50;100.00;63355.56;5009800;28;20085;-83
2022/07/03 03:33:41;;;;;;;7.13;3.95;;;;;;;-141.50;100.00;63355.56;4992911;28;20053;-83
2022/07/03 03:36:09;;;;;;;4.28;3.83;;;;;;;-141.50;100.00;63355.56;5010551;28;20073;-82
2022/07/03 03:38:35;;;;;;;6.50;3.83;;;;;;;-141.50;100.00;63355.56;5014458;28;20113;-81
2022/07/03 03:41:03;;;;;;;6.22;3.60;;;;;;;-141.50;100.00;63355.56;4995530;28;20707;-84
2022/07/03 03:43:31;;;;;;;4.60;3.60;;;;;;;-141.50;100.00;63355.56;5011828;28;20165;-84
2022/07/03 03:45:58;;;;;;;6.55;3.90;;;;;;;-141.50;100.00;63355.56;4995529;28;20455;-83
2022/07/03 03:48:29;;;;;;;4.50;3.60;;;;;;;-141.50;100.00;63355.56;5012650;28;20056;-82
2022/07/03 03:50:56;;;;;;;5.68;3.78;;;;;;;-141.50;100.00;63355.56;5011818;28;20562;-81
2022/07/03 03:53:25;;;;;;;5.00;3.80;;;;;;;-141.50;100.00;63355.56;5012685;28;20050;-83
2022/07/03 03:56:01;;;;;;;6.28;3.92;;;;;;;-141.50;100.00;63355.56;5012666;28;20050;-83
2022/07/03 03:58:29;;;;;;;8.55;3.63;;;;;;;-141.50;100.00;63355.56;5011872;28;20107;-82
2022/07/03 04:00:57;;;;;;;6.22;3.88;;;;;;;-141.50;100.00;63355.56;5014235;28;20085;-81
2022/07/03 04:03:25;;;;;;;5.00;3.75;;;;;;;-141.50;100.00;63355.56;5004216;28;20061;-82
2022/07/03 04:05:53;;;;;;;4.47;3.53;;;;;;;-141.50;100.00;63355.56;5004773;28;20049;-81
2022/07/03 04:08:21;;;;;;;8.07;3.85;;;;;;;-141.50;100.00;63355.56;5019024;28;20081;-80
2022/07/03 04:10:48;;;;;;;6.13;3.85;;;;;;;-141.50;100.00;63355.56;5004139;28;20046;-80
2022/07/03 04:13:15;;;;;;;5.50;3.67;;;;;;;-141.50;100.00;63355.56;5023880;28;20045;-80
2022/07/03 04:15:42;;;;;;;7.22;3.70;;;;;;;-141.50;100.00;63355.56;5034033;28;20057;-80
2022/07/03 04:18:09;;;;;;;6.47;3.55;;;;;;;-141.50;100.00;63355.56;5024083;28;20057;-83
2022/07/03 04:20:36;;;;;;;6.03;3.40;;;;;;;-141.50;100.00;63355.56;5013328;28;20062;-82
2022/07/03 04:23:03;;;;;;;5.07;3.50;;;;;;;-141.50;100.00;63355.56;5012816;28;20050;-82
2022/07/03 04:25:30;;;;;;;5.53;3.33;;;;;;;-141.50;100.00;63355.56;4995647;28;20533;-82
2022/07/03 04:27:57;;;;;;;6.88;3.47;;;;;;;-141.50;100.00;63355.56;4999019;28;20050;-82
2022/07/03 04:30:43;;;;;;;7.38;3.50;;;;;;;-141.50;100.00;63355.56;5016579;28;20104;-84
2022/07/03 04:33:10;;;;;;;7.40;3.70;;;;;;;-141.50;100.00;63355.56;4998524;28;20054;-83
2022/07/03 04:35:38;;;;;;;8.40;3.78;;;;;;;-141.50;100.00;63355.56;4998654;28;20085;-81
2022/07/03 04:38:04;;;;;;;6.97;3.88;;;;;;;-141.50;100.00;63355.56;4998410;28;20049;-84
2022/07/03 04:40:31;;;;;;;4.65;3.20;;;;;;;-141.50;100.00;63355.56;5014576;28;20081;-80
2022/07/03 04:42:59;;;;;;;4.28;3.42;;;;;;;-141.50;100.00;63355.56;5012889;28;20172;-82
2022/07/03 04:45:25;;;;;;;6.47;3.53;;;;;;;-141.50;100.00;63355.56;5013478;28;20140;-81
2022/07/03 04:47:54;;;;;;;3.97;3.10;;;;;;;-141.50;100.00;63355.56;5014699;28;20068;-79
2022/07/03 04:50:21;;;;;;;7.30;3.33;;;;;;;-141.50;100.00;63355.56;5015265;28;20073;-81
2022/07/03 04:52:47;;;;;;;5.68;3.83;;;;;;;-141.50;100.00;63355.56;5014849;28;20087;-79
2022/07/03 04:55:14;;;;;;;4.00;3.08;;;;;;;-141.50;100.00;63355.56;4996490;28;20470;-82
2022/07/03 04:57:40;;;;;;;6.50;2.88;;;;;;;-141.50;100.00;63355.56;5013466;28;20502;-81
2022/07/03 05:00:08;;;;;;;4.90;3.35;;;;;;;-141.50;100.00;63355.56;5013604;28;20093;-81
2022/07/03 05:02:35;;;;;;;8.02;3.47;;;;;;;-141.50;100.00;63355.56;5013223;28;20053;-79
2022/07/03 05:05:03;;;;;;;3.30;2.78;;;;;;;-141.50;100.00;63355.56;4996105;28;20065;-80
2022/07/03 05:07:29;;;;;;;7.03;3.15;;;;;;;-141.50;100.00;63355.56;4996607;28;20061;-80
2022/07/03 05:09:57;;;;;;;5.53;3.15;;;;;;;-141.50;100.00;63355.56;5014025;28;20057;-80
2022/07/03 05:12:23;;;;;;;5.60;2.97;;;;;;;-141.50;100.00;63355.56;5014929;28;20073;-83
2022/07/03 05:14:50;;;;;;;5.13;3.00;;;;;;;-141.50;100.00;63355.56;5021737;28;20593;-80
2022/07/03 05:17:18;;;;;;;3.80;2.88;;;;;;;-141.50;100.00;63355.56;5013439;28;20193;-80
2022/07/03 05:19:45;;;;;;;4.82;2.70;;;;;;;-141.50;100.00;63355.56;5012243;28;20104;-81
2022/07/03 05:22:12;;;;;;;6.00;2.97;;;;;;;-141.50;100.00;63355.56;5013378;28;20056;-81
2022/07/03 05:24:39;;;;;;;6.30;3.00;;;;;;;-141.50;100.00;63355.56;4995678;28;20058;-82
2022/07/03 05:27:05;;;;;;;4.28;2.65;;;;;;;-141.50;100.00;63355.56;4996519;28;20083;-82
2022/07/03 05:29:32;;;;;;;3.80;2.75;;;;;;;-141.50;100.00;63355.56;4995245;28;20054;-83
2022/07/03 05:32:04;;;;;;;4.60;2.75;;;;;;;-141.50;100.00;63355.56;5013533;28;20050;-83
2022/07/03 05:34:33;;;;;;;5.40;3.15;;;;;;;-141.50;100.00;63355.56;5013553;28;20053;-82
2022/07/03 05:36:59;;;;;;;6.05;3.10;;;;;;;-141.50;100.00;63355.56;5012322;28;20058;-80
2022/07/03 05:39:32;;;;;;;6.00;2.83;;;;;;;-141.50;100.00;63355.56;4995781;28;20054;-81
2022/07/03 05:41:59;;;;;;;4.13;2.50;;;;;;;-141.50;100.00;63355.56;5014997;28;20064;-84
2022/07/03 05:44:25;;;;;;;3.05;1.98;;;;;;;-141.50;100.00;63355.56;5013502;28;20043;-80
2022/07/03 05:46:52;;;;;;;9.35;2.38;;;;;;;-141.50;100.00;63355.56;5014303;28;20074;-80
2022/07/03 05:49:18;;;;;;;3.13;2.10;;;;;;;-141.50;100.00;63355.56;5013514;28;20060;-82
2022/07/03 05:51:45;;;;;;;3.20;1.90;;;;;;;-141.50;100.00;63355.56;5013957;28;20169;-83
2022/07/03 05:54:12;;;;;;;4.38;2.15;;;;;;;-141.50;100.00;63355.56;5013004;28;20085;-78
2022/07/03 05:56:38;;;;;;;4.22;1.85;;;;;;;-141.50;100.00;63355.56;5010326;28;20092;-77
2022/07/03 05:59:05;;;;;;;5.40;2.15;;;;;;;-141.50;100.00;63355.56;5012495;28;20084;-75
2022/07/03 06:01:32;;;;;;;3.97;1.90;;;;;;;-141.50;100.00;63355.56;5018613;28;20050;-78
2022/07/03 06:03:58;;;;;;;5.90;2.13;;;;;;;-141.50;100.00;63355.56;5019310;28;20470;-76
2022/07/03 06:06:25;;;;;;;3.97;2.00;;;;;;;-141.50;100.00;63355.56;5001148;28;20104;-77
2022/07/03 06:08:52;;;;;;;3.72;2.00;;;;;;;-141.50;100.00;63355.56;4999729;28;20116;-77
2022/07/03 06:11:18;;;;;;;5.05;1.60;;;;;;;-141.50;100.00;63355.56;5000869;28;20140;-79
2022/07/03 06:13:45;;;;;;;2.15;1.92;;;;;;;-141.50;100.00;63355.56;5001513;28;20107;-76
2022/07/03 06:16:11;;;;;;;4.13;2.00;;;;;;;-141.50;100.00;63355.56;5019871;28;20042;-77
2022/07/03 06:18:38;;;;;;;2.42;1.77;;;;;;;-141.50;100.00;63355.56;5016472;28;20052;-75
2022/07/03 06:21:04;;;;;;;2.60;1.70;;;;;;;-141.50;100.00;63355.56;5020030;28;20081;-77
2022/07/03 06:23:31;;;;;;;4.10;1.67;;;;;;;-141.50;100.00;63355.56;5017140;28;20077;-76
2022/07/03 06:26:14;;;;;;;3.28;1.95;;;;;;;-141.50;100.00;63355.56;5014060;28;20056;-76
2022/07/03 06:28:42;;;;;;;4.35;1.90;;;;;;;-141.50;100.00;63355.56;4996874;28;20147;-77
2022/07/03 06:31:09;;;;;;;2.22;1.60;;;;;;;-141.50;100.00;63355.56;5019839;28;20102;-76
2022/07/03 06:33:35;;;;;;;7.40;1.67;;;;;;;-141.50;100.00;63355.56;5020121;28;20069;-76
2022/07/03 06:36:02;;;;;;;2.80;1.75;;;;;;;-141.50;100.00;63355.56;5003200;28;20053;-75
2022/07/03 06:38:29;;;;;;;2.88;1.60;;;;;;;-141.50;100.00;63355.56;5001752;28;20089;-77
2022/07/03 06:40:55;;;;;;;3.28;1.67;;;;;;;-141.50;100.00;63355.56;5010574;28;20105;-75
2022/07/03 06:43:22;;;;;;;2.33;1.50;;;;;;;-141.50;100.00;63355.56;4995352;28;20119;-75
2022/07/03 06:45:49;;;;;;;2.22;1.48;;;;;;;-141.50;100.00;63355.56;5017079;28;20092;-76
2022/07/03 06:48:16;;;;;;;3.47;1.50;;;;;;;-141.50;100.00;63355.56;5013994;28;20126;-78
2022/07/03 06:50:42;;;;;;;5.07;1.60;;;;;;;-141.50;100.00;63355.56;5004651;28;20096;-76
2022/07/03 06:53:09;;;;;;;3.88;1.40;;;;;;;-141.50;100.00;63355.56;4998875;28;20589;-76
2022/07/03 06:55:35;;;;;;;5.32;1.52;;;;;;;-141.50;100.00;63355.56;5017438;28;20057;-77
2022/07/03 06:58:02;;;;;;;1.90;1.40;;;;;;;-141.50;100.00;63355.56;5011639;28;20049;-76
2022/07/03 07:00:29;;;;;;;2.30;1.40;;;;;;;-141.50;100.00;63355.56;5013978;28;20049;-76
2022/07/03 07:02:56;;;;;;;5.35;1.50;;;;;;;-141.50;100.00;63355.56;5005725;28;20128;-77
2022/07/03 07:05:25;;;;;;;2.00;1.60;;;;;;;-141.50;100.00;63355.56;5018148;28;20482;-75
2022/07/03 07:07:52;;;;;;;8.80;1.30;;;;;;;-141.50;100.00;63355.56;5006335;28;20050;-76
2022/07/03 07:10:19;;;;;;;3.08;1.52;;;;;;;-141.50;100.00;63355.56;5006588;28;20053;-76
2022/07/03 07:12:45;;;;;;;2.13;1.40;;;;;;;-141.50;100.00;63355.56;5007137;28;20506;-77
2022/07/03 07:15:12;;;;;;;6.20;1.75;;;;;;;-141.50;100.00;63355.56;4999288;28;20529;-77
2022/07/03 07:17:38;;;;;;;3.50;1.60;;;;;;;-141.50;100.00;63355.56;5017965;28;20049;-76
2022/07/03 07:20:05;;;;;;;3.80;1.60;;;;;;;-141.50;100.00;63355.56;5004549;28;20138;-76
2022/07/03 07:22:32;;;;;;;2.40;1.50;;;;;;;-141.50;100.00;63355.56;4988327;28;20129;-77
2022/07/03 07:24:58;;;;;;;4.50;1.67;;;;;;;-141.50;100.00;63355.56;4988168;28;20081;-77
2022/07/03 07:27:25;;;;;;;2.65;1.48;;;;;;;-141.50;100.00;63355.56;5005701;28;20208;-77
2022/07/03 07:29:51;;;;;;;2.97;1.52;;;;;;;-141.50;100.00;63355.56;4988010;28;20088;-77
2022/07/03 07:32:18;;;;;;;2.88;1.55;;;;;;;-141.50;100.00;63355.56;5006092;28;20610;-77
2022/07/03 07:34:44;;;;;;;3.03;1.38;;;;;;;-141.50;100.00;63355.56;5005130;28;20051;-78
2022/07/03 07:37:11;;;;;;;2.67;1.60;;;;;;;-141.50;100.00;63355.56;5006475;28;20085;-76
2022/07/03 07:39:37;;;;;;;3.08;1.58;;;;;;;-141.50;100.00;63355.56;5009481;28;20149;-77
2022/07/03 07:42:04;;;;;;;2.92;1.60;;;;;;;-141.50;100.00;63355.56;5003554;28;20068;-76
2022/07/03 07:44:31;;;;;;;3.15;1.50;;;;;;;-141.50;100.00;63355.56;5026812;28;20092;-80
2022/07/03 07:46:57;;;;;;;2.83;1.40;;;;;;;-141.50;100.00;63355.56;5028201;28;20435;-79
2022/07/03 07:49:24;;;;;;;3.65;1.60;;;;;;;-141.50;100.00;63355.56;5027088;28;20145;-76
2022/07/03 07:51:51;;;;;;;2.92;1.30;;;;;;;-141.50;100.00;63355.56;5025368;28;20053;-76
2022/07/03 07:54:17;;;;;;;4.57;1.83;;;;;;;-141.50;100.00;63355.56;4998267;28;20133;-77
2022/07/03 07:56:44;;;;;;;2.13;1.58;;;;;;;-141.50;100.00;63355.56;5006226;28;20085;-75
2022/07/03 07:59:10;;;;;;;2.05;1.40;;;;;;;-141.50;100.00;63355.56;5005613;28;20062;-74
2022/07/03 08:07:07;;;;;;;2.65;1.50;;;;;;;-141.50;100.00;63355.56;5011651;28;20077;-76
2022/07/03 08:09:33;;;;;;;1.70;1.35;;;;;;;-141.50;100.00;63355.56;5013371;28;20117;-77
2022/07/03 08:12:00;;;;;;;2.08;1.42;;;;;;;-141.50;100.00;63355.56;4999871;28;20064;-76
2022/07/03 08:14:26;;;;;;;2.97;1.60;;;;;;;-141.50;100.00;63355.56;5035012;28;20080;-80
2022/07/03 08:16:53;;;;;;;3.38;1.50;;;;;;;-141.50;100.00;63355.56;5039321;28;20049;-79
2022/07/03 08:19:19;;;;;;;3.92;1.63;;;;;;;-141.50;100.00;63355.56;5048478;28;20052;-78
2022/07/03 08:21:46;;;;;;;3.30;1.42;;;;;;;-141.50;100.00;63355.56;5049397;28;20057;-81
2022/07/03 08:24:13;;;;;;;2.15;1.50;;;;;;;-141.50;100.00;63355.56;5036710;28;20058;-78
2022/07/03 08:26:39;;;;;;;2.97;1.60;;;;;;;-141.50;100.00;63355.56;5034433;28;20064;-81
2022/07/03 08:29:06;;;;;;;1.67;1.30;;;;;;;-141.50;100.00;63355.56;5029004;28;20056;-79
2022/07/03 08:31:32;;;;;;;4.35;1.45;;;;;;;-141.50;100.00;63355.56;5043804;28;20053;-79
2022/07/03 08:33:59;;;;;;;2.08;1.48;;;;;;;-141.50;100.00;63355.56;5035597;28;20083;-80
2022/07/03 08:36:28;;;;;;;1.67;1.40;;;;;;;-141.50;100.00;63355.56;5022982;28;20049;-82
2022/07/03 08:38:56;;;;;;;6.53;1.38;;;;;;;-141.50;100.00;63355.56;5006765;28;20073;-83
2022/07/03 08:41:24;;;;;;;3.15;1.15;;;;;;;-141.50;100.00;63355.56;5003976;28;20053;-81
2022/07/03 08:43:53;;;;;;;3.95;1.30;;;;;;;-141.50;100.00;63355.56;5020609;28;20076;-85
2022/07/03 08:46:20;;;;;;;3.53;1.33;;;;;;;-141.50;100.00;63355.56;5001713;28;20054;-82
2022/07/03 08:48:49;;;;;;;1.67;1.38;;;;;;;-141.50;100.00;63355.56;5017884;28;20065;-80
2022/07/03 08:51:19;;;;;;;1.88;1.40;;;;;;;-141.50;100.00;63355.56;4999895;28;20077;-82
2022/07/03 08:53:47;;;;;;;1.92;1.40;;;;;;;-141.50;100.00;63355.56;4998374;28;20054;-81
2022/07/03 08:56:14;;;;;;;1.80;1.05;;;;;;;-141.50;100.00;63355.56;4998320;28;20133;-82
2022/07/03 08:58:42;;;;;;;1.33;1.17;;;;;;;-141.50;100.00;63355.56;5016203;28;20427;-81
2022/07/03 09:01:09;;;;;;;3.28;1.48;;;;;;;-141.50;100.00;63355.56;4995849;28;20053;-81
2022/07/03 09:03:37;;;;;;;3.92;1.30;;;;;;;-141.50;100.00;63355.56;4996009;28;20119;-80
2022/07/03 09:06:05;;;;;;;2.40;1.10;;;;;;;-141.50;100.00;63355.56;5014063;28;20054;-81
2022/07/03 09:08:34;;;;;;;1.27;0.90;;;;;;;-141.50;100.00;63355.56;5019980;28;20081;-81
2022/07/03 09:11:01;;;;;;;3.95;1.20;;;;;;;-141.50;100.00;63355.56;5012073;28;20053;-82
2022/07/03 09:13:29;;;;;;;2.00;1.00;;;;;;;-141.50;100.00;63355.56;5010986;28;20053;-81
2022/07/03 09:15:55;;;;;;;2.78;1.30;;;;;;;-141.50;100.00;63355.56;5022245;28;20126;-79
2022/07/03 09:18:39;;;;;;;2.42;1.40;;;;;;;-141.50;100.00;63355.56;5023250;28;20100;-80
2022/07/03 09:21:06;;;;;;;3.55;1.10;;;;;;;-141.50;100.00;63355.56;5025119;28;20057;-81
2022/07/03 09:23:41;;;;;;;1.23;1.10;;;;;;;-141.50;100.00;63355.56;4998319;28;20050;-82
2022/07/03 09:26:16;;;;;;;1.88;1.20;;;;;;;-141.50;100.00;63355.56;5015112;28;20147;-81
2022/07/03 09:28:51;;;;;;;2.60;1.10;;;;;;;-141.50;100.00;63355.56;5014174;28;20112;-81
2022/07/03 09:31:22;;;;;;;1.33;1.17;;;;;;;-141.50;100.00;63355.56;5013419;28;20046;-79
2022/07/03 09:34:03;;;;;;;3.20;1.10;;;;;;;-141.50;100.00;63355.56;4995832;28;20054;-81
2022/07/03 09:36:45;;;;;;;2.38;1.00;;;;;;;-141.50;100.00;63355.56;5013290;28;20808;-81
2022/07/03 09:39:31;;;;;;;2.08;1.10;;;;;;;-141.50;100.00;63355.56;4995462;28;20526;-81
2022/07/03 09:42:00;;;;;;;1.90;1.10;;;;;;;-141.50;100.00;63355.56;5013555;28;20054;-80
2022/07/03 09:44:42;;;;;;;2.35;1.30;;;;;;;-141.50;100.00;63355.56;4995885;28;20220;-81
2022/07/03 09:47:13;;;;;;;2.33;0.93;;;;;;;-141.50;100.00;63355.56;5011287;28;20064;-77
2022/07/03 09:49:56;;;;;;;4.82;1.35;;;;;;;-141.50;100.00;63355.56;4995773;28;20443;-81
2022/07/03 09:52:32;;;;;;;1.40;0.85;;;;;;;-141.50;100.00;63355.56;5013252;28;20131;-82
2022/07/03 09:55:01;;;;;;;3.50;1.10;;;;;;;-141.50;100.00;63355.56;5013562;28;20100;-82
2022/07/03 09:57:29;;;;;;;1.58;1.20;;;;;;;-141.50;100.00;63355.56;4993288;28;20075;-80
2022/07/03 10:00:12;;;;;;;1.20;1.10;;;;;;;-141.50;100.00;63355.56;5011921;28;20092;-82
2022/07/03 10:02:51;;;;;;;2.03;1.00;;;;;;;-141.50;100.00;63355.56;5012238;28;20077;-82
2022/07/03 10:05:18;;;;;;;1.90;1.10;;;;;;;-141.50;100.00;63355.56;4995218;28;20073;-82
2022/07/03 10:07:57;;;;;;;2.10;1.00;;;;;;;-141.50;100.00;63355.56;5019119;28;20137;-82
2022/07/03 10:10:26;;;;;;;3.22;1.10;;;;;;;-141.50;100.00;63355.56;5013396;28;20092;-86
2022/07/03 10:12:54;;;;;;;2.33;1.20;;;;;;;-141.50;100.00;63355.56;4995445;28;20484;-81
2022/07/03 10:15:22;;;;;;;2.25;1.10;;;;;;;-141.50;100.00;63355.56;5003313;28;20121;-78
2022/07/03 10:17:51;;;;;;;2.75;1.20;;;;;;;-141.50;100.00;63355.56;4994710;28;20050;-80
2022/07/03 10:20:30;;;;;;;1.70;1.15;;;;;;;-141.50;100.00;63355.56;5010166;28;20097;-81
2022/07/03 10:22:57;;;;;;;2.33;1.00;;;;;;;-141.50;100.00;63355.56;5012039;28;20092;-81
2022/07/03 10:25:24;;;;;;;1.27;0.90;;;;;;;-141.50;100.00;63355.56;5013066;28;20046;-84
2022/07/03 10:27:51;;;;;;;1.85;0.88;;;;;;;-141.50;100.00;63355.56;4993329;28;20119;-85
2022/07/03 10:30:19;;;;;;;1.27;0.95;;;;;;;-141.50;100.00;63355.56;5017557;28;20508;-78
2022/07/03 10:32:48;;;;;;;2.42;1.10;;;;;;;-141.50;100.00;63355.56;5013313;28;20215;-86
2022/07/03 10:35:31;;;;;;;5.28;0.90;;;;;;;-141.50;100.00;63355.56;5035537;28;20046;-83
2022/07/03 10:38:01;;;;;;;1.20;0.90;;;;;;;-141.50;100.00;63355.56;5027023;28;20049;-80
2022/07/03 10:46:37;;;;;;;2.42;1.10;;;;;;;-141.50;100.00;63355.56;5030387;28;20057;-77
2022/07/03 10:49:07;;;;;;;1.45;1.10;;;;;;;-141.50;100.00;63355.56;5031344;28;20081;-78
2022/07/03 10:51:49;;;;;;;2.47;1.10;;;;;;;-141.50;100.00;63355.56;5012898;28;20145;-77
2022/07/03 10:54:48;;;;;;;1.10;0.90;;;;;;;-141.50;100.00;63355.56;5014244;28;20085;-76
2022/07/03 10:57:16;;;;;;;5.53;1.20;;;;;;;-141.50;100.00;63355.56;5016037;28;20072;-79
2022/07/03 10:59:43;;;;;;;3.42;1.08;;;;;;;-141.50;100.00;63355.56;5022893;28;20056;-83
2022/07/03 11:02:33;;;;;;;2.78;1.50;;;;;;;-141.50;100.00;63355.56;5007073;28;20477;-78
2022/07/03 11:05:03;;;;;;;3.03;1.10;;;;;;;-141.50;100.00;63355.56;5024230;28;20053;-80
2022/07/03 11:08:04;;;;;;;1.67;0.93;;;;;;;-141.50;100.00;63355.56;5007577;28;20041;-80
2022/07/03 11:10:33;;;;;;;1.90;1.05;;;;;;;-141.50;100.00;63355.56;5016618;28;20049;-80
2022/07/03 11:13:07;;;;;;;2.17;1.10;;;;;;;-141.50;100.00;63355.56;5026183;28;20530;-82
2022/07/03 11:15:37;;;;;;;5.82;0.98;;;;;;;-141.50;100.00;63355.56;5004719;28;20064;-83
2022/07/03 11:18:10;;;;;;;4.28;1.35;;;;;;;-141.50;100.00;63355.56;5006961;28;20084;-83
2022/07/03 11:20:42;;;;;;;2.10;1.40;;;;;;;-141.50;100.00;63355.56;4960191;28;1428964;-83
2022/07/03 11:23:09;;;;;;;1.85;1.20;;;;;;;-141.50;100.00;63355.56;5023096;28;20050;-82
2022/07/03 11:25:44;;;;;;;2.15;1.30;;;;;;;-141.50;100.00;63355.56;5006038;28;20115;-86
2022/07/03 11:28:32;;;;;;;1.33;1.20;;;;;;;-141.50;100.00;63355.56;5023473;28;20104;-84
2022/07/03 11:31:18;;;;;;;2.92;1.10;;;;;;;-141.50;100.00;63355.56;5021817;28;20053;-85
2022/07/03 11:33:56;;;;;;;2.10;1.17;;;;;;;-141.50;100.00;63355.56;5021430;28;20465;-84
2022/07/03 11:36:25;;;;;;;3.80;1.20;;;;;;;-141.50;100.00;63355.56;4979382;28;20049;-82